EGSSLFKB

Guest
Details From EGSS - London Stansted
To LFKB - Poretta
Flight Number -
Tags Routegen
Created
Modified
Stats Distance 691 nm / 1,280 km
Max Altitude 0 ft / 0 m
Waypoints 7
Social Downloads 4
Likes 0
Share VATSIM

Download

Looking for another format? Having issues loading an existing format? Contact us
Advertisement - Login to hide

Notes

None

Route

EGSS +51.77_+000.06 ANARU BELKA AKUTI +42.98_+009.30 LFKB

ID Type Via Altitude (ft/m) Position (lat/lon) Dist (leg/tot) Name
O EGSS APT - 0 / 0 51.87508 / 0.21993 - / 0 nm
+51.77_+000.06 DME - 0 / 0 51.76876 / 0.06105 8 / 8 nm
ANARU FIX - 0 / 0 49.53028 / 3.75583 194 / 203 nm
BELKA FIX - 0 / 0 46.06333 / 5.84667 224 / 427 nm
AKUTI FIX - 0 / 0 43.22722 / 8.94028 215 / 643 nm
+42.98_+009.30 DME - 0 / 0 42.97806 / 9.30401 21 / 665 nm
O LFKB APT - 0 / 0 42.56334 / 9.47917 26 / 691 nm

Altitude Profile

Advertisement - Login to hide

Weather


0- 5 10 15 20 25 30 35+ Temperature / °C

Clouds and Precipitation
Forecast for 2019-03-21 12:00 UTC. Updated 2 hours ago

Ground ~20,000 ft ~40,000 ft Winds

EGSS

Details ICAO EGSS (STN)
Name London Stansted
Region United Kingdom
Timezone Europe/London (UTC+0.0)
Stats Elevation 348 ft / 106 m (AMSL)
Location 51.885100° 0.234986°
Runways 1
Magnetic Variation 0.176° W

METAR

EGSS 211120Z AUTO 28005KT 240V330 9999 OVC015 13/09 Q1034

Decode

TAF

TAF AMD EGSS 210853Z 2108/2212 25006KT 9999 SCT007 BKN016 TEMPO 2108/2112 7000 BKN007 TEMPO 2112/2115 BKN014 TEMPO 2115/2121 BKN014 TEMPO 2121/2210 5000 HZ BKN009

Decode

Departure Runways

ID Width Length Bearing (true/mag) Surface Threshold Overrun Markings Lighting
04 151 ft / 46 m 9,985 ft / 3,044 m 42.78° / 42.96° ASPHALT 974 ft / 297 m 0 ft / 0 m UK-PREC-APP CENTERLINE EDGE THRESHOLD CALVERT-ILS TDZ REIL-OMNI
22 151 ft / 46 m 9,985 ft / 3,044 m 222.81° / 222.98° ASPHALT 0 ft / 0 m 0 ft / 0 m UK-PREC-APP CENTERLINE EDGE THRESHOLD CALVERT-ILS TDZ REIL-OMNI

LFKB

Details ICAO LFKB (BIA)
Name Bastia Poretta
Region France
Timezone Europe/Paris (UTC+1.0)
Stats Elevation 24 ft / 7 m (AMSL)
Location 42.552600° 9.483750°
Runways 1
Magnetic Variation 2.622° E

METAR

LFKB 211130Z AUTO 36012KT 320V050 CAVOK 15/04 Q1028 NOSIG

Decode

TAF

TAF LFKB 210800Z 2109/2209 03012KT CAVOK TX17/2113Z TN09/2204Z BECMG 2118/2121 30005KT

Decode

Destination Runways

ID Width Length Bearing (true/mag) Surface Threshold Overrun Markings Lighting
16 148 ft / 45 m 8,273 ft / 2,522 m 162.83° / 160.21° ASPHALT 0 ft / 0 m 102 ft / 31 m APP CENTERLINE EDGE THRESHOLD TDZ REIL-OMNI
34 148 ft / 45 m 8,273 ft / 2,522 m 342.84° / 340.22° ASPHALT 0 ft / 0 m 0 ft / 0 m PREC-APP CENTERLINE EDGE THRESHOLD TDZ REIL-OMNI

Approach Navaids

Runway Type Ident Frequency Range Bearing (true/mag) Slope Elevation
34 DME BP 111.35 MHz 18 nm / 33 km - - 69 ft / 21 m (AMSL)
34 LOC-ILS BP 111.35 MHz 27 nm / 50 km 342.81° / 340.19 ° - 25 ft / 8 m (AMSL)
34 GS BP 111.35 MHz 27 nm / 50 km 343.62° / 341.00 ° 3.00° 25 ft / 8 m (AMSL)